sensor_id;sensor_type;location;lat;lon;timestamp;P1;durP1;ratioP1;P2;durP2;ratioP2
47856;SDS011;33618;49.972;8.242;2023-04-27T00:01:17;5.47;;;3.50;;
47856;SDS011;33618;49.972;8.242;2023-04-27T00:03:44;7.68;;;3.42;;
47856;SDS011;33618;49.972;8.242;2023-04-27T00:06:11;6.28;;;3.88;;
47856;SDS011;33618;49.972;8.242;2023-04-27T00:08:38;6.57;;;3.65;;
47856;SDS011;33618;49.972;8.242;2023-04-27T00:11:05;6.05;;;3.63;;
47856;SDS011;33618;49.972;8.242;2023-04-27T00:13:32;6.05;;;3.88;;
47856;SDS011;33618;49.972;8.242;2023-04-27T00:15:59;5.38;;;3.33;;
47856;SDS011;33618;49.972;8.242;2023-04-27T00:18:29;5.32;;;3.42;;
47856;SDS011;33618;49.972;8.242;2023-04-27T00:20:56;10.38;;;4.22;;
47856;SDS011;33618;49.972;8.242;2023-04-27T00:23:23;5.20;;;3.60;;
47856;SDS011;33618;49.972;8.242;2023-04-27T00:25:51;7.47;;;3.92;;
47856;SDS011;33618;49.972;8.242;2023-04-27T00:28:18;6.47;;;3.50;;
47856;SDS011;33618;49.972;8.242;2023-04-27T00:30:45;5.45;;;4.00;;
47856;SDS011;33618;49.972;8.242;2023-04-27T00:33:12;9.02;;;3.58;;
47856;SDS011;33618;49.972;8.242;2023-04-27T00:35:39;4.95;;;3.70;;
47856;SDS011;33618;49.972;8.242;2023-04-27T00:38:06;8.63;;;3.80;;
47856;SDS011;33618;49.972;8.242;2023-04-27T00:40:32;7.53;;;4.10;;
47856;SDS011;33618;49.972;8.242;2023-04-27T00:42:59;5.72;;;3.72;;
47856;SDS011;33618;49.972;8.242;2023-04-27T00:45:26;6.97;;;3.80;;
47856;SDS011;33618;49.972;8.242;2023-04-27T00:47:53;5.20;;;3.95;;
47856;SDS011;33618;49.972;8.242;2023-04-27T00:50:25;9.95;;;3.80;;
47856;SDS011;33618;49.972;8.242;2023-04-27T00:52:56;10.90;;;3.80;;
47856;SDS011;33618;49.972;8.242;2023-04-27T00:55:24;8.00;;;4.10;;
47856;SDS011;33618;49.972;8.242;2023-04-27T00:57:51;6.75;;;3.90;;
47856;SDS011;33618;49.972;8.242;2023-04-27T01:00:18;7.47;;;4.05;;
47856;SDS011;33618;49.972;8.242;2023-04-27T01:02:45;7.20;;;4.07;;
47856;SDS011;33618;49.972;8.242;2023-04-27T01:05:13;6.45;;;4.28;;
47856;SDS011;33618;49.972;8.242;2023-04-27T01:07:40;7.47;;;3.95;;
47856;SDS011;33618;49.972;8.242;2023-04-27T01:10:07;6.13;;;3.80;;
47856;SDS011;33618;49.972;8.242;2023-04-27T01:12:35;7.00;;;3.95;;
47856;SDS011;33618;49.972;8.242;2023-04-27T01:15:02;7.47;;;3.72;;
47856;SDS011;33618;49.972;8.242;2023-04-27T01:17:29;5.32;;;4.20;;
47856;SDS011;33618;49.972;8.242;2023-04-27T01:19:56;7.13;;;4.47;;
47856;SDS011;33618;49.972;8.242;2023-04-27T01:22:25;7.82;;;4.30;;
47856;SDS011;33618;49.972;8.242;2023-04-27T01:24:52;7.30;;;4.38;;
47856;SDS011;33618;49.972;8.242;2023-04-27T01:27:19;6.05;;;3.90;;
47856;SDS011;33618;49.972;8.242;2023-04-27T01:29:46;6.82;;;3.97;;
47856;SDS011;33618;49.972;8.242;2023-04-27T01:32:13;7.32;;;3.95;;
47856;SDS011;33618;49.972;8.242;2023-04-27T01:34:40;7.35;;;4.57;;
47856;SDS011;33618;49.972;8.242;2023-04-27T01:37:06;8.30;;;4.20;;
47856;SDS011;33618;49.972;8.242;2023-04-27T01:39:33;5.25;;;4.05;;
47856;SDS011;33618;49.972;8.242;2023-04-27T01:42:00;5.95;;;4.18;;
47856;SDS011;33618;49.972;8.242;2023-04-27T01:44:28;6.78;;;4.30;;
47856;SDS011;33618;49.972;8.242;2023-04-27T01:46:55;9.15;;;4.20;;
47856;SDS011;33618;49.972;8.242;2023-04-27T01:49:22;7.95;;;4.00;;
47856;SDS011;33618;49.972;8.242;2023-04-27T01:51:49;5.85;;;4.18;;
47856;SDS011;33618;49.972;8.242;2023-04-27T01:54:16;6.22;;;4.00;;
47856;SDS011;33618;49.972;8.242;2023-04-27T01:56:43;7.65;;;4.05;;
47856;SDS011;33618;49.972;8.242;2023-04-27T01:59:10;8.57;;;3.92;;
47856;SDS011;33618;49.972;8.242;2023-04-27T02:01:37;5.90;;;4.15;;
47856;SDS011;33618;49.972;8.242;2023-04-27T02:04:04;7.43;;;4.13;;
47856;SDS011;33618;49.972;8.242;2023-04-27T02:06:32;8.10;;;4.30;;
47856;SDS011;33618;49.972;8.242;2023-04-27T02:08:58;7.35;;;4.03;;
47856;SDS011;33618;49.972;8.242;2023-04-27T02:11:25;6.25;;;4.20;;
47856;SDS011;33618;49.972;8.242;2023-04-27T02:13:52;6.88;;;4.35;;
47856;SDS011;33618;49.972;8.242;2023-04-27T02:16:19;5.38;;;4.10;;
47856;SDS011;33618;49.972;8.242;2023-04-27T02:18:46;6.68;;;4.10;;
47856;SDS011;33618;49.972;8.242;2023-04-27T02:21:14;8.05;;;4.47;;
47856;SDS011;33618;49.972;8.242;2023-04-27T02:23:41;9.15;;;4.22;;
47856;SDS011;33618;49.972;8.242;2023-04-27T02:26:14;6.43;;;4.20;;
47856;SDS011;33618;49.972;8.242;2023-04-27T02:28:42;7.32;;;4.20;;
47856;SDS011;33618;49.972;8.242;2023-04-27T02:31:10;7.10;;;4.40;;
47856;SDS011;33618;49.972;8.242;2023-04-27T02:33:37;8.25;;;4.60;;
47856;SDS011;33618;49.972;8.242;2023-04-27T02:36:04;5.28;;;4.25;;
47856;SDS011;33618;49.972;8.242;2023-04-27T02:38:31;7.38;;;4.30;;
47856;SDS011;33618;49.972;8.242;2023-04-27T02:40:58;8.18;;;4.63;;
47856;SDS011;33618;49.972;8.242;2023-04-27T02:43:24;6.32;;;4.22;;
47856;SDS011;33618;49.972;8.242;2023-04-27T02:45:51;7.07;;;4.43;;
47856;SDS011;33618;49.972;8.242;2023-04-27T02:48:18;7.70;;;4.63;;
47856;SDS011;33618;49.972;8.242;2023-04-27T02:50:45;7.18;;;4.55;;
47856;SDS011;33618;49.972;8.242;2023-04-27T02:53:12;6.13;;;4.13;;
47856;SDS011;33618;49.972;8.242;2023-04-27T02:55:44;6.95;;;4.43;;
47856;SDS011;33618;49.972;8.242;2023-04-27T02:58:13;7.72;;;4.40;;
47856;SDS011;33618;49.972;8.242;2023-04-27T03:00:42;9.82;;;4.35;;
47856;SDS011;33618;49.972;8.242;2023-04-27T03:03:09;5.30;;;4.20;;
47856;SDS011;33618;49.972;8.242;2023-04-27T03:05:36;8.35;;;4.55;;
47856;SDS011;33618;49.972;8.242;2023-04-27T03:08:03;6.28;;;4.20;;
47856;SDS011;33618;49.972;8.242;2023-04-27T03:10:30;7.82;;;4.45;;
47856;SDS011;33618;49.972;8.242;2023-04-27T03:12:57;7.13;;;4.45;;
47856;SDS011;33618;49.972;8.242;2023-04-27T03:15:24;7.80;;;4.32;;
47856;SDS011;33618;49.972;8.242;2023-04-27T03:17:50;8.15;;;4.78;;
47856;SDS011;33618;49.972;8.242;2023-04-27T03:20:17;7.45;;;4.43;;
47856;SDS011;33618;49.972;8.242;2023-04-27T03:22:44;11.25;;;5.35;;
47856;SDS011;33618;49.972;8.242;2023-04-27T03:25:11;5.85;;;4.50;;
47856;SDS011;33618;49.972;8.242;2023-04-27T03:27:38;9.10;;;5.00;;
47856;SDS011;33618;49.972;8.242;2023-04-27T03:30:05;8.60;;;4.68;;
47856;SDS011;33618;49.972;8.242;2023-04-27T03:32:32;6.95;;;4.30;;
47856;SDS011;33618;49.972;8.242;2023-04-27T03:34:59;5.22;;;3.97;;
47856;SDS011;33618;49.972;8.242;2023-04-27T03:37:26;8.88;;;4.85;;
47856;SDS011;33618;49.972;8.242;2023-04-27T03:39:54;8.55;;;5.22;;
47856;SDS011;33618;49.972;8.242;2023-04-27T03:42:20;9.95;;;4.95;;
47856;SDS011;33618;49.972;8.242;2023-04-27T03:44:47;10.88;;;5.32;;
47856;SDS011;33618;49.972;8.242;2023-04-27T03:47:14;7.57;;;4.70;;
47856;SDS011;33618;49.972;8.242;2023-04-27T03:49:41;7.25;;;4.70;;
47856;SDS011;33618;49.972;8.242;2023-04-27T03:52:08;7.55;;;4.40;;
47856;SDS011;33618;49.972;8.242;2023-04-27T03:54:35;9.30;;;5.18;;
47856;SDS011;33618;49.972;8.242;2023-04-27T03:57:02;6.35;;;4.88;;
47856;SDS011;33618;49.972;8.242;2023-04-27T03:59:30;5.18;;;4.20;;
47856;SDS011;33618;49.972;8.242;2023-04-27T04:01:57;7.68;;;4.85;;
47856;SDS011;33618;49.972;8.242;2023-04-27T04:04:26;7.57;;;5.32;;
47856;SDS011;33618;49.972;8.242;2023-04-27T04:06:54;5.22;;;4.70;;
47856;SDS011;33618;49.972;8.242;2023-04-27T04:09:20;14.98;;;4.80;;
47856;SDS011;33618;49.972;8.242;2023-04-27T04:11:50;11.48;;;5.03;;
47856;SDS011;33618;49.972;8.242;2023-04-27T04:14:17;9.18;;;4.57;;
47856;SDS011;33618;49.972;8.242;2023-04-27T04:16:44;7.72;;;4.70;;
47856;SDS011;33618;49.972;8.242;2023-04-27T04:19:11;6.95;;;4.82;;
47856;SDS011;33618;49.972;8.242;2023-04-27T04:21:39;7.00;;;4.55;;
47856;SDS011;33618;49.972;8.242;2023-04-27T04:24:06;6.28;;;4.10;;
47856;SDS011;33618;49.972;8.242;2023-04-27T04:26:33;7.25;;;4.53;;
47856;SDS011;33618;49.972;8.242;2023-04-27T04:29:00;7.45;;;4.47;;
47856;SDS011;33618;49.972;8.242;2023-04-27T04:31:27;6.82;;;4.60;;
47856;SDS011;33618;49.972;8.242;2023-04-27T04:33:55;7.47;;;4.20;;
47856;SDS011;33618;49.972;8.242;2023-04-27T04:36:22;5.28;;;4.78;;
47856;SDS011;33618;49.972;8.242;2023-04-27T04:38:49;8.32;;;5.07;;
47856;SDS011;33618;49.972;8.242;2023-04-27T04:41:16;9.25;;;4.45;;
47856;SDS011;33618;49.972;8.242;2023-04-27T04:43:44;9.63;;;4.72;;
47856;SDS011;33618;49.972;8.242;2023-04-27T04:46:13;12.45;;;4.53;;
47856;SDS011;33618;49.972;8.242;2023-04-27T04:48:40;9.88;;;4.80;;
47856;SDS011;33618;49.972;8.242;2023-04-27T04:51:07;10.45;;;4.65;;
47856;SDS011;33618;49.972;8.242;2023-04-27T04:53:34;10.55;;;4.85;;
47856;SDS011;33618;49.972;8.242;2023-04-27T04:56:07;6.80;;;4.55;;
47856;SDS011;33618;49.972;8.242;2023-04-27T04:58:35;9.00;;;4.90;;
47856;SDS011;33618;49.972;8.242;2023-04-27T05:01:02;8.50;;;4.75;;
47856;SDS011;33618;49.972;8.242;2023-04-27T05:03:28;7.90;;;4.75;;
47856;SDS011;33618;49.972;8.242;2023-04-27T05:05:55;9.88;;;4.25;;
47856;SDS011;33618;49.972;8.242;2023-04-27T05:08:22;8.23;;;4.88;;
47856;SDS011;33618;49.972;8.242;2023-04-27T05:10:50;6.88;;;4.70;;
47856;SDS011;33618;49.972;8.242;2023-04-27T05:13:18;11.27;;;4.60;;
47856;SDS011;33618;49.972;8.242;2023-04-27T05:15:46;7.65;;;4.15;;
47856;SDS011;33618;49.972;8.242;2023-04-27T05:18:12;6.93;;;4.60;;
47856;SDS011;33618;49.972;8.242;2023-04-27T05:20:39;5.35;;;4.50;;
47856;SDS011;33618;49.972;8.242;2023-04-27T05:23:06;5.40;;;3.95;;
47856;SDS011;33618;49.972;8.242;2023-04-27T05:25:33;5.07;;;4.20;;
47856;SDS011;33618;49.972;8.242;2023-04-27T05:28:07;6.63;;;4.30;;
47856;SDS011;33618;49.972;8.242;2023-04-27T05:30:34;6.07;;;4.40;;
47856;SDS011;33618;49.972;8.242;2023-04-27T05:33:02;5.90;;;4.18;;
47856;SDS011;33618;49.972;8.242;2023-04-27T05:35:29;9.25;;;4.70;;
47856;SDS011;33618;49.972;8.242;2023-04-27T05:37:57;7.47;;;4.47;;
47856;SDS011;33618;49.972;8.242;2023-04-27T05:40:24;7.05;;;4.20;;
47856;SDS011;33618;49.972;8.242;2023-04-27T05:42:51;11.35;;;4.47;;
47856;SDS011;33618;49.972;8.242;2023-04-27T05:45:18;4.90;;;4.07;;
47856;SDS011;33618;49.972;8.242;2023-04-27T05:47:45;8.50;;;4.68;;
47856;SDS011;33618;49.972;8.242;2023-04-27T05:50:12;12.30;;;4.45;;
47856;SDS011;33618;49.972;8.242;2023-04-27T05:52:39;9.88;;;4.18;;
47856;SDS011;33618;49.972;8.242;2023-04-27T05:55:06;6.90;;;4.43;;
47856;SDS011;33618;49.972;8.242;2023-04-27T05:57:33;9.13;;;4.40;;
47856;SDS011;33618;49.972;8.242;2023-04-27T06:00:01;8.65;;;4.38;;
47856;SDS011;33618;49.972;8.242;2023-04-27T06:02:32;6.78;;;4.10;;
47856;SDS011;33618;49.972;8.242;2023-04-27T06:04:59;9.60;;;4.82;;
47856;SDS011;33618;49.972;8.242;2023-04-27T06:07:27;10.38;;;4.30;;
47856;SDS011;33618;49.972;8.242;2023-04-27T06:09:53;8.57;;;4.32;;
47856;SDS011;33618;49.972;8.242;2023-04-27T06:12:20;9.32;;;4.15;;
47856;SDS011;33618;49.972;8.242;2023-04-27T06:14:47;6.78;;;3.95;;
47856;SDS011;33618;49.972;8.242;2023-04-27T06:17:14;9.63;;;4.47;;
47856;SDS011;33618;49.972;8.242;2023-04-27T06:19:41;6.75;;;4.40;;
47856;SDS011;33618;49.972;8.242;2023-04-27T06:22:08;7.25;;;4.00;;
47856;SDS011;33618;49.972;8.242;2023-04-27T06:24:36;8.98;;;4.72;;
47856;SDS011;33618;49.972;8.242;2023-04-27T06:27:05;5.30;;;3.42;;
47856;SDS011;33618;49.972;8.242;2023-04-27T06:29:31;10.05;;;3.80;;
47856;SDS011;33618;49.972;8.242;2023-04-27T06:31:58;5.28;;;3.28;;
47856;SDS011;33618;49.972;8.242;2023-04-27T06:34:25;8.20;;;3.30;;
47856;SDS011;33618;49.972;8.242;2023-04-27T06:36:52;8.60;;;3.25;;
47856;SDS011;33618;49.972;8.242;2023-04-27T06:39:19;9.95;;;3.80;;
47856;SDS011;33618;49.972;8.242;2023-04-27T06:41:46;7.30;;;4.10;;
47856;SDS011;33618;49.972;8.242;2023-04-27T06:44:13;4.82;;;3.80;;
47856;SDS011;33618;49.972;8.242;2023-04-27T06:46:40;8.75;;;4.40;;
47856;SDS011;33618;49.972;8.242;2023-04-27T06:49:06;5.38;;;3.85;;
47856;SDS011;33618;49.972;8.242;2023-04-27T06:51:33;6.68;;;3.33;;
47856;SDS011;33618;49.972;8.242;2023-04-27T06:54:00;8.60;;;3.40;;
47856;SDS011;33618;49.972;8.242;2023-04-27T06:56:27;7.70;;;3.78;;
47856;SDS011;33618;49.972;8.242;2023-04-27T06:58:54;7.70;;;3.60;;
47856;SDS011;33618;49.972;8.242;2023-04-27T07:01:21;8.88;;;3.58;;
47856;SDS011;33618;49.972;8.242;2023-04-27T07:03:48;6.20;;;2.92;;
47856;SDS011;33618;49.972;8.242;2023-04-27T07:06:16;6.30;;;2.83;;
47856;SDS011;33618;49.972;8.242;2023-04-27T07:08:43;6.15;;;3.10;;
47856;SDS011;33618;49.972;8.242;2023-04-27T07:11:10;3.20;;;2.60;;
47856;SDS011;33618;49.972;8.242;2023-04-27T07:13:37;3.60;;;2.50;;
47856;SDS011;33618;49.972;8.242;2023-04-27T07:16:04;4.03;;;2.70;;
47856;SDS011;33618;49.972;8.242;2023-04-27T07:18:31;6.43;;;2.90;;
47856;SDS011;33618;49.972;8.242;2023-04-27T07:20:58;8.88;;;3.15;;
47856;SDS011;33618;49.972;8.242;2023-04-27T07:23:25;2.80;;;2.50;;
47856;SDS011;33618;49.972;8.242;2023-04-27T07:25:52;5.43;;;2.80;;
47856;SDS011;33618;49.972;8.242;2023-04-27T07:28:19;6.18;;;2.70;;
47856;SDS011;33618;49.972;8.242;2023-04-27T07:30:46;6.88;;;2.97;;
47856;SDS011;33618;49.972;8.242;2023-04-27T07:33:13;8.07;;;3.20;;
47856;SDS011;33618;49.972;8.242;2023-04-27T07:35:39;9.00;;;2.88;;
47856;SDS011;33618;49.972;8.242;2023-04-27T07:38:07;6.53;;;2.80;;
47856;SDS011;33618;49.972;8.242;2023-04-27T07:40:34;4.35;;;2.92;;
47856;SDS011;33618;49.972;8.242;2023-04-27T07:43:02;10.65;;;3.20;;
47856;SDS011;33618;49.972;8.242;2023-04-27T07:45:29;4.95;;;2.70;;
47856;SDS011;33618;49.972;8.242;2023-04-27T07:47:59;8.32;;;3.35;;
47856;SDS011;33618;49.972;8.242;2023-04-27T07:50:27;7.18;;;2.78;;
47856;SDS011;33618;49.972;8.242;2023-04-27T07:52:56;4.13;;;2.72;;
47856;SDS011;33618;49.972;8.242;2023-04-27T07:55:24;6.80;;;2.70;;
47856;SDS011;33618;49.972;8.242;2023-04-27T07:57:52;5.25;;;2.45;;
47856;SDS011;33618;49.972;8.242;2023-04-27T08:00:20;5.32;;;2.80;;
47856;SDS011;33618;49.972;8.242;2023-04-27T08:02:48;6.72;;;2.60;;
47856;SDS011;33618;49.972;8.242;2023-04-27T08:05:16;4.32;;;2.95;;
47856;SDS011;33618;49.972;8.242;2023-04-27T08:07:43;7.28;;;2.67;;
47856;SDS011;33618;49.972;8.242;2023-04-27T08:10:11;6.80;;;2.90;;
47856;SDS011;33618;49.972;8.242;2023-04-27T08:12:38;10.85;;;3.15;;
47856;SDS011;33618;49.972;8.242;2023-04-27T08:15:05;3.08;;;2.63;;
47856;SDS011;33618;49.972;8.242;2023-04-27T08:17:32;5.18;;;2.60;;
47856;SDS011;33618;49.972;8.242;2023-04-27T08:20:00;6.03;;;2.70;;
47856;SDS011;33618;49.972;8.242;2023-04-27T08:22:27;12.10;;;2.67;;
47856;SDS011;33618;49.972;8.242;2023-04-27T08:24:53;5.15;;;2.72;;
47856;SDS011;33618;49.972;8.242;2023-04-27T08:27:20;4.95;;;2.80;;
47856;SDS011;33618;49.972;8.242;2023-04-27T08:29:47;4.32;;;2.53;;
47856;SDS011;33618;49.972;8.242;2023-04-27T08:32:15;4.15;;;2.45;;
47856;SDS011;33618;49.972;8.242;2023-04-27T08:34:41;5.40;;;2.33;;
47856;SDS011;33618;49.972;8.242;2023-04-27T08:37:10;3.30;;;2.22;;
47856;SDS011;33618;49.972;8.242;2023-04-27T08:39:36;6.07;;;2.28;;
47856;SDS011;33618;49.972;8.242;2023-04-27T08:42:10;4.93;;;2.25;;
47856;SDS011;33618;49.972;8.242;2023-04-27T08:44:40;5.13;;;2.30;;
47856;SDS011;33618;49.972;8.242;2023-04-27T08:47:08;3.30;;;2.30;;
47856;SDS011;33618;49.972;8.242;2023-04-27T08:49:35;6.07;;;2.40;;
47856;SDS011;33618;49.972;8.242;2023-04-27T08:52:15;3.55;;;2.40;;
47856;SDS011;33618;49.972;8.242;2023-04-27T08:54:42;6.07;;;2.78;;
47856;SDS011;33618;49.972;8.242;2023-04-27T08:57:10;4.68;;;2.50;;
47856;SDS011;33618;49.972;8.242;2023-04-27T08:59:41;6.68;;;2.38;;
47856;SDS011;33618;49.972;8.242;2023-04-27T09:02:17;5.10;;;2.38;;
47856;SDS011;33618;49.972;8.242;2023-04-27T09:04:47;3.65;;;2.40;;
47856;SDS011;33618;49.972;8.242;2023-04-27T09:07:15;5.50;;;2.60;;
47856;SDS011;33618;49.972;8.242;2023-04-27T09:09:43;3.47;;;2.40;;
47856;SDS011;33618;49.972;8.242;2023-04-27T09:12:17;4.28;;;2.78;;
47856;SDS011;33618;49.972;8.242;2023-04-27T09:14:55;8.38;;;2.90;;
47856;SDS011;33618;49.972;8.242;2023-04-27T09:17:26;5.68;;;2.65;;
47856;SDS011;33618;49.972;8.242;2023-04-27T09:20:08;4.25;;;2.80;;
47856;SDS011;33618;49.972;8.242;2023-04-27T09:22:44;4.05;;;2.50;;
47856;SDS011;33618;49.972;8.242;2023-04-27T09:25:28;5.88;;;2.50;;
47856;SDS011;33618;49.972;8.242;2023-04-27T09:27:58;3.65;;;2.50;;
47856;SDS011;33618;49.972;8.242;2023-04-27T09:30:26;3.60;;;2.88;;
47856;SDS011;33618;49.972;8.242;2023-04-27T09:32:55;4.38;;;2.75;;
47856;SDS011;33618;49.972;8.242;2023-04-27T09:35:32;4.57;;;2.20;;
47856;SDS011;33618;49.972;8.242;2023-04-27T09:37:59;6.93;;;3.10;;
47856;SDS011;33618;49.972;8.242;2023-04-27T09:40:27;4.53;;;2.47;;
47856;SDS011;33618;49.972;8.242;2023-04-27T09:42:57;3.95;;;2.63;;
47856;SDS011;33618;49.972;8.242;2023-04-27T09:45:28;5.25;;;2.60;;
47856;SDS011;33618;49.972;8.242;2023-04-27T09:47:55;3.95;;;2.40;;
47856;SDS011;33618;49.972;8.242;2023-04-27T09:50:23;5.07;;;2.72;;
47856;SDS011;33618;49.972;8.242;2023-04-27T09:52:51;5.05;;;2.90;;
47856;SDS011;33618;49.972;8.242;2023-04-27T09:55:24;5.43;;;2.85;;
47856;SDS011;33618;49.972;8.242;2023-04-27T10:03:22;5.22;;;2.60;;
47856;SDS011;33618;49.972;8.242;2023-04-27T10:08:29;5.72;;;3.00;;
47856;SDS011;33618;49.972;8.242;2023-04-27T10:10:55;10.05;;;2.95;;
47856;SDS011;33618;49.972;8.242;2023-04-27T10:13:23;6.15;;;3.17;;
47856;SDS011;33618;49.972;8.242;2023-04-27T10:15:52;4.90;;;2.97;;
47856;SDS011;33618;49.972;8.242;2023-04-27T10:18:29;8.00;;;3.17;;
47856;SDS011;33618;49.972;8.242;2023-04-27T10:20:57;8.45;;;3.10;;
47856;SDS011;33618;49.972;8.242;2023-04-27T10:23:43;4.45;;;3.30;;
47856;SDS011;33618;49.972;8.242;2023-04-27T10:26:26;5.55;;;2.92;;
47856;SDS011;33618;49.972;8.242;2023-04-27T10:29:11;4.13;;;3.10;;
47856;SDS011;33618;49.972;8.242;2023-04-27T10:31:46;4.40;;;2.85;;
47856;SDS011;33618;49.972;8.242;2023-04-27T10:34:16;6.20;;;2.70;;
47856;SDS011;33618;49.972;8.242;2023-04-27T10:36:46;9.23;;;3.17;;
47856;SDS011;33618;49.972;8.242;2023-04-27T10:39:17;5.72;;;2.88;;
47856;SDS011;33618;49.972;8.242;2023-04-27T10:41:58;4.35;;;2.75;;
47856;SDS011;33618;49.972;8.242;2023-04-27T10:44:25;5.53;;;3.20;;
47856;SDS011;33618;49.972;8.242;2023-04-27T10:46:54;4.22;;;2.90;;
47856;SDS011;33618;49.972;8.242;2023-04-27T10:49:27;4.75;;;3.10;;
47856;SDS011;33618;49.972;8.242;2023-04-27T10:51:56;4.38;;;3.20;;
47856;SDS011;33618;49.972;8.242;2023-04-27T10:54:25;4.53;;;3.00;;
47856;SDS011;33618;49.972;8.242;2023-04-27T10:56:54;9.85;;;3.17;;
47856;SDS011;33618;49.972;8.242;2023-04-27T10:59:29;3.78;;;3.15;;
47856;SDS011;33618;49.972;8.242;2023-04-27T11:01:56;5.03;;;2.97;;
47856;SDS011;33618;49.972;8.242;2023-04-27T11:04:33;3.28;;;2.95;;
47856;SDS011;33618;49.972;8.242;2023-04-27T11:07:01;5.22;;;3.00;;
47856;SDS011;33618;49.972;8.242;2023-04-27T11:09:29;5.38;;;3.17;;
47856;SDS011;33618;49.972;8.242;2023-04-27T11:11:56;4.25;;;2.72;;
47856;SDS011;33618;49.972;8.242;2023-04-27T11:14:23;4.13;;;2.95;;
47856;SDS011;33618;49.972;8.242;2023-04-27T11:16:50;4.88;;;3.03;;
47856;SDS011;33618;49.972;8.242;2023-04-27T11:19:17;4.13;;;2.88;;
47856;SDS011;33618;49.972;8.242;2023-04-27T11:21:44;3.80;;;2.70;;
47856;SDS011;33618;49.972;8.242;2023-04-27T11:24:11;4.18;;;3.10;;
47856;SDS011;33618;49.972;8.242;2023-04-27T11:26:40;5.07;;;2.97;;
47856;SDS011;33618;49.972;8.242;2023-04-27T11:29:08;4.38;;;2.78;;
47856;SDS011;33618;49.972;8.242;2023-04-27T11:34:14;10.73;;;3.15;;
47856;SDS011;33618;49.972;8.242;2023-04-27T11:37:01;5.80;;;2.67;;
47856;SDS011;33618;49.972;8.242;2023-04-27T11:39:43;5.60;;;2.88;;
47856;SDS011;33618;49.972;8.242;2023-04-27T11:42:15;4.25;;;2.58;;
47856;SDS011;33618;49.972;8.242;2023-04-27T11:47:20;4.32;;;2.50;;
47856;SDS011;33618;49.972;8.242;2023-04-27T11:49:51;6.90;;;2.80;;
47856;SDS011;33618;49.972;8.242;2023-04-27T11:52:29;4.00;;;2.85;;
47856;SDS011;33618;49.972;8.242;2023-04-27T11:54:58;7.28;;;3.35;;
47856;SDS011;33618;49.972;8.242;2023-04-27T11:57:26;5.75;;;2.78;;
47856;SDS011;33618;49.972;8.242;2023-04-27T11:59:55;4.43;;;2.70;;
47856;SDS011;33618;49.972;8.242;2023-04-27T12:02:22;4.00;;;2.60;;
47856;SDS011;33618;49.972;8.242;2023-04-27T12:04:49;5.30;;;2.80;;
47856;SDS011;33618;49.972;8.242;2023-04-27T12:07:18;4.47;;;2.75;;
47856;SDS011;33618;49.972;8.242;2023-04-27T12:09:45;5.60;;;2.95;;
47856;SDS011;33618;49.972;8.242;2023-04-27T12:12:12;4.65;;;2.58;;
47856;SDS011;33618;49.972;8.242;2023-04-27T12:14:39;4.32;;;2.75;;
47856;SDS011;33618;49.972;8.242;2023-04-27T12:17:06;7.70;;;2.80;;
47856;SDS011;33618;49.972;8.242;2023-04-27T12:19:33;6.30;;;2.70;;
47856;SDS011;33618;49.972;8.242;2023-04-27T12:22:02;5.90;;;2.90;;
47856;SDS011;33618;49.972;8.242;2023-04-27T12:24:29;4.30;;;2.80;;
47856;SDS011;33618;49.972;8.242;2023-04-27T12:26:57;5.60;;;2.63;;
47856;SDS011;33618;49.972;8.242;2023-04-27T12:29:24;4.93;;;2.88;;
47856;SDS011;33618;49.972;8.242;2023-04-27T12:31:51;4.22;;;2.55;;
47856;SDS011;33618;49.972;8.242;2023-04-27T12:34:18;3.60;;;2.90;;
47856;SDS011;33618;49.972;8.242;2023-04-27T12:36:45;8.98;;;3.20;;
47856;SDS011;33618;49.972;8.242;2023-04-27T12:39:16;5.43;;;2.70;;
47856;SDS011;33618;49.972;8.242;2023-04-27T12:41:48;4.50;;;2.65;;
47856;SDS011;33618;49.972;8.242;2023-04-27T12:44:16;5.28;;;2.67;;
47856;SDS011;33618;49.972;8.242;2023-04-27T12:46:44;4.65;;;2.70;;
47856;SDS011;33618;49.972;8.242;2023-04-27T12:49:11;7.22;;;2.63;;
47856;SDS011;33618;49.972;8.242;2023-04-27T12:51:38;3.75;;;2.53;;
47856;SDS011;33618;49.972;8.242;2023-04-27T12:54:07;4.75;;;2.97;;
47856;SDS011;33618;49.972;8.242;2023-04-27T12:56:35;6.32;;;2.70;;
47856;SDS011;33618;49.972;8.242;2023-04-27T12:59:02;4.45;;;2.60;;
47856;SDS011;33618;49.972;8.242;2023-04-27T13:01:29;4.45;;;2.72;;
47856;SDS011;33618;49.972;8.242;2023-04-27T13:04:00;8.32;;;2.90;;
47856;SDS011;33618;49.972;8.242;2023-04-27T13:06:29;4.15;;;2.90;;
47856;SDS011;33618;49.972;8.242;2023-04-27T13:08:57;5.20;;;2.55;;
47856;SDS011;33618;49.972;8.242;2023-04-27T13:11:24;3.80;;;2.72;;
47856;SDS011;33618;49.972;8.242;2023-04-27T13:13:51;4.88;;;2.95;;
47856;SDS011;33618;49.972;8.242;2023-04-27T13:16:20;3.05;;;2.60;;
47856;SDS011;33618;49.972;8.242;2023-04-27T13:18:50;6.18;;;2.85;;
47856;SDS011;33618;49.972;8.242;2023-04-27T13:21:19;5.38;;;2.92;;
47856;SDS011;33618;49.972;8.242;2023-04-27T13:23:46;3.95;;;2.60;;
47856;SDS011;33618;49.972;8.242;2023-04-27T13:26:13;5.10;;;2.90;;
47856;SDS011;33618;49.972;8.242;2023-04-27T13:28:41;7.20;;;2.85;;
47856;SDS011;33618;49.972;8.242;2023-04-27T13:31:08;3.05;;;2.40;;
47856;SDS011;33618;49.972;8.242;2023-04-27T13:33:39;4.68;;;2.58;;
47856;SDS011;33618;49.972;8.242;2023-04-27T13:36:08;5.30;;;2.42;;
47856;SDS011;33618;49.972;8.242;2023-04-27T13:38:36;5.03;;;2.70;;
47856;SDS011;33618;49.972;8.242;2023-04-27T13:41:03;6.20;;;2.38;;
47856;SDS011;33618;49.972;8.242;2023-04-27T13:43:30;4.38;;;2.75;;
47856;SDS011;33618;49.972;8.242;2023-04-27T13:45:57;4.82;;;2.83;;
47856;SDS011;33618;49.972;8.242;2023-04-27T13:48:26;3.88;;;2.63;;
47856;SDS011;33618;49.972;8.242;2023-04-27T13:50:54;4.50;;;2.60;;
47856;SDS011;33618;49.972;8.242;2023-04-27T13:53:21;3.85;;;2.60;;
47856;SDS011;33618;49.972;8.242;2023-04-27T13:55:52;3.67;;;2.38;;
47856;SDS011;33618;49.972;8.242;2023-04-27T13:58:19;3.80;;;2.20;;
47856;SDS011;33618;49.972;8.242;2023-04-27T14:00:49;4.50;;;2.55;;
47856;SDS011;33618;49.972;8.242;2023-04-27T14:03:18;5.82;;;2.20;;
47856;SDS011;33618;49.972;8.242;2023-04-27T14:05:45;4.15;;;2.38;;
47856;SDS011;33618;49.972;8.242;2023-04-27T14:08:14;7.78;;;2.92;;
47856;SDS011;33618;49.972;8.242;2023-04-27T14:10:41;5.50;;;2.28;;
47856;SDS011;33618;49.972;8.242;2023-04-27T14:13:08;3.10;;;2.35;;
47856;SDS011;33618;49.972;8.242;2023-04-27T14:15:35;3.45;;;2.00;;
47856;SDS011;33618;49.972;8.242;2023-04-27T14:18:06;3.10;;;2.13;;
47856;SDS011;33618;49.972;8.242;2023-04-27T14:20:34;4.60;;;2.10;;
47856;SDS011;33618;49.972;8.242;2023-04-27T14:23:01;4.28;;;2.20;;
47856;SDS011;33618;49.972;8.242;2023-04-27T14:25:29;3.67;;;2.10;;
47856;SDS011;33618;49.972;8.242;2023-04-27T14:28:00;6.35;;;2.30;;
47856;SDS011;33618;49.972;8.242;2023-04-27T14:30:28;4.32;;;2.17;;
47856;SDS011;33618;49.972;8.242;2023-04-27T14:32:56;2.63;;;1.95;;
47856;SDS011;33618;49.972;8.242;2023-04-27T14:35:23;4.63;;;2.03;;
47856;SDS011;33618;49.972;8.242;2023-04-27T14:37:50;5.28;;;2.20;;
47856;SDS011;33618;49.972;8.242;2023-04-27T14:40:17;4.72;;;2.35;;
47856;SDS011;33618;49.972;8.242;2023-04-27T14:42:45;5.00;;;2.80;;
47856;SDS011;33618;49.972;8.242;2023-04-27T14:45:12;5.00;;;2.25;;
47856;SDS011;33618;49.972;8.242;2023-04-27T14:47:54;3.20;;;2.40;;
47856;SDS011;33618;49.972;8.242;2023-04-27T14:50:21;3.45;;;2.00;;
47856;SDS011;33618;49.972;8.242;2023-04-27T14:52:49;4.43;;;2.35;;
47856;SDS011;33618;49.972;8.242;2023-04-27T14:55:15;5.85;;;2.60;;
47856;SDS011;33618;49.972;8.242;2023-04-27T14:57:43;3.70;;;2.30;;
47856;SDS011;33618;49.972;8.242;2023-04-27T15:00:10;3.28;;;2.30;;
47856;SDS011;33618;49.972;8.242;2023-04-27T15:02:39;3.28;;;2.60;;
47856;SDS011;33618;49.972;8.242;2023-04-27T15:05:06;6.20;;;2.78;;
47856;SDS011;33618;49.972;8.242;2023-04-27T15:07:34;3.17;;;2.65;;